createdAt,value
2024-02-14T00:02:14.925Z,24
2024-02-14T00:07:13.956Z,26
2024-02-14T00:22:14.803Z,26
2024-02-14T00:27:14.076Z,27
2024-02-14T00:32:14.696Z,26
2024-02-14T00:37:14.597Z,26
2024-02-14T00:42:13.984Z,26
2024-02-14T00:47:14.475Z,23
2024-02-14T00:52:14.007Z,24
2024-02-14T01:07:14.827Z,24
2024-02-14T01:12:14.761Z,24
2024-02-14T01:27:15.180Z,24
2024-02-14T01:32:14.205Z,27
2024-02-14T01:37:14.099Z,24
2024-02-14T01:42:14.605Z,25
2024-02-14T01:47:14.581Z,26
2024-02-14T01:52:14.196Z,27
2024-02-14T01:57:14.603Z,28
2024-02-14T02:02:14.776Z,28
2024-02-14T02:07:14.121Z,27
2024-02-14T02:12:14.667Z,26
2024-02-14T02:32:15.224Z,26
2024-02-14T02:37:14.196Z,27
2024-02-14T02:52:15.137Z,27
2024-02-14T02:57:14.340Z,26
2024-02-14T03:02:14.226Z,24
2024-02-14T03:07:14.773Z,27
2024-02-14T03:12:14.414Z,26
2024-02-14T03:17:14.266Z,26
2024-02-14T03:22:14.276Z,26
2024-02-14T03:37:15.094Z,26
2024-02-14T03:42:14.908Z,28
2024-02-14T03:47:14.846Z,24
2024-02-14T03:52:14.835Z,25
2024-02-14T03:57:14.497Z,26
2024-02-14T04:02:14.963Z,27
2024-02-14T04:07:14.900Z,26
2024-02-14T04:12:15.000Z,25
2024-02-14T04:17:14.358Z,25
2024-02-14T04:32:15.741Z,25
2024-02-14T04:37:15.386Z,24
2024-02-14T04:42:14.989Z,24
2024-02-14T04:47:14.422Z,25
2024-02-14T04:52:14.942Z,23
2024-02-14T04:57:14.944Z,26
2024-02-14T05:02:14.957Z,25
2024-02-14T05:22:15.291Z,25
2024-02-14T05:27:14.685Z,26
2024-02-14T05:32:15.006Z,27
2024-02-14T05:37:15.016Z,26
2024-02-14T05:42:14.559Z,25
2024-02-14T05:47:15.160Z,25
2024-02-14T05:52:15.022Z,26
2024-02-14T05:57:14.665Z,28
2024-02-14T06:02:15.070Z,28
2024-02-14T06:07:14.572Z,28
2024-02-14T06:12:15.115Z,27
2024-02-14T06:17:15.115Z,25
2024-02-14T06:22:15.171Z,26
2024-02-14T06:27:15.261Z,27
2024-02-14T06:32:14.636Z,25
2024-02-14T06:37:15.225Z,25
2024-02-14T06:42:14.614Z,26
2024-02-14T06:47:15.153Z,25
2024-02-14T06:52:15.269Z,25
2024-02-14T06:57:15.169Z,27
2024-02-14T07:02:15.290Z,25
2024-02-14T07:07:14.829Z,28
2024-02-14T07:12:15.549Z,27
2024-02-14T07:17:15.215Z,26
2024-02-14T07:27:15.502Z,26
2024-02-14T07:32:15.238Z,25
2024-02-14T07:37:14.726Z,25
2024-02-14T07:42:14.892Z,24
2024-02-14T07:47:15.359Z,25
2024-02-14T07:52:15.269Z,24
2024-02-14T07:57:15.333Z,24
2024-02-14T08:02:14.781Z,25
2024-02-14T08:07:15.310Z,27
2024-02-14T08:12:15.321Z,28
2024-02-14T08:32:15.896Z,28
2024-02-14T08:37:14.820Z,29
2024-02-14T08:42:15.481Z,29
2024-02-14T08:47:15.029Z,29
2024-02-14T08:52:15.372Z,30
2024-02-14T08:57:15.390Z,32
2024-02-14T09:02:15.386Z,30
2024-02-14T09:07:15.116Z,28
2024-02-14T09:12:15.557Z,30
2024-02-14T09:27:16.077Z,30
2024-02-14T09:32:15.333Z,27
2024-02-14T09:37:15.459Z,26
2024-02-14T09:42:15.613Z,27
2024-02-14T09:47:15.144Z,29
2024-02-14T09:52:14.970Z,28
2024-02-14T10:17:15.826Z,28
2024-02-14T10:22:15.141Z,29
2024-02-14T10:37:16.276Z,29
2024-02-14T10:42:15.085Z,28
2024-02-14T10:57:15.971Z,28
2024-02-14T11:02:15.233Z,26
2024-02-14T11:07:15.140Z,26
2024-02-14T11:12:15.838Z,27
2024-02-14T11:17:15.627Z,25
2024-02-14T11:22:15.652Z,27
2024-02-14T11:47:18.758Z,27
2024-02-14T11:52:15.794Z,26
2024-02-14T11:57:15.856Z,26
2024-02-14T12:02:15.708Z,28
2024-02-14T12:07:15.261Z,28
2024-02-14T12:12:15.793Z,29
2024-02-14T12:22:15.955Z,30
2024-02-14T12:27:15.911Z,28
2024-02-14T12:32:16.031Z,27
2024-02-14T12:37:15.293Z,27
2024-02-14T12:42:15.345Z,28
2024-02-14T13:02:16.146Z,28
2024-02-14T13:07:15.487Z,28
2024-02-14T13:22:16.850Z,28
2024-02-14T13:27:15.439Z,26
2024-02-14T13:42:16.271Z,26
2024-02-14T13:47:15.401Z,27
2024-02-14T13:52:15.540Z,28
2024-02-14T14:17:16.286Z,28
2024-02-14T14:22:16.213Z,26
2024-02-14T14:32:15.979Z,26
2024-02-14T14:37:16.094Z,27
2024-02-14T14:42:16.023Z,26
2024-02-14T14:47:15.663Z,27
2024-02-14T14:52:16.044Z,26
2024-02-14T14:57:16.132Z,25
2024-02-14T15:02:16.071Z,27
2024-02-14T15:07:16.188Z,27
2024-02-14T15:12:16.648Z,28
2024-02-14T15:27:16.432Z,28
2024-02-14T15:32:15.738Z,31
2024-02-14T15:37:16.247Z,26
2024-02-14T15:42:15.755Z,28
2024-02-14T15:47:15.738Z,27
2024-02-14T15:52:16.292Z,27
2024-02-14T15:57:16.256Z,26
2024-02-14T16:02:16.159Z,27
2024-02-14T16:07:16.168Z,27
2024-02-14T16:12:16.330Z,27
2024-02-14T16:17:16.305Z,27
2024-02-14T16:22:16.545Z,26
2024-02-14T16:27:16.605Z,29
2024-02-14T16:32:15.821Z,29
2024-02-14T16:37:15.820Z,27
2024-02-14T16:42:16.459Z,27
2024-02-14T16:47:15.733Z,29
2024-02-14T16:52:15.732Z,28
2024-02-14T16:57:17.566Z,27
2024-02-14T17:02:16.014Z,28
2024-02-14T17:07:16.790Z,28
2024-02-14T17:12:15.815Z,26
2024-02-14T17:17:16.416Z,27
2024-02-14T17:22:17.482Z,29
2024-02-14T17:42:16.707Z,29
2024-02-14T17:47:16.480Z,27
2024-02-14T17:52:16.740Z,28
2024-02-14T17:57:15.874Z,28
2024-02-14T18:02:16.381Z,29
2024-02-14T18:17:16.855Z,29
2024-02-14T18:22:16.516Z,29
2024-02-14T18:37:16.749Z,29
2024-02-14T18:42:16.140Z,30
2024-02-14T18:57:16.927Z,30
2024-02-14T19:02:16.074Z,27
2024-02-14T19:07:16.179Z,27
2024-02-14T19:12:16.573Z,28
2024-02-14T19:22:16.525Z,28
2024-02-14T19:27:16.612Z,30
2024-02-14T19:32:16.977Z,29
2024-02-14T19:37:16.570Z,30
2024-02-14T19:42:16.224Z,29
2024-02-14T19:47:16.549Z,30
2024-02-14T19:52:16.598Z,30
2024-02-14T20:12:17.110Z,30
2024-02-14T20:17:16.233Z,29
2024-02-14T20:22:16.680Z,29
2024-02-14T20:27:16.672Z,30
2024-02-14T20:32:16.380Z,31
2024-02-14T20:47:17.235Z,31
2024-02-14T20:52:17.126Z,27
2024-02-14T20:57:16.333Z,28
2024-02-14T21:02:17.599Z,28
2024-02-14T21:07:16.339Z,28
2024-02-14T21:12:16.929Z,28
2024-02-14T21:17:16.760Z,27
2024-02-14T21:22:16.224Z,30
2024-02-14T21:27:16.795Z,28
2024-02-14T21:32:16.258Z,28
2024-02-14T21:37:16.783Z,25
2024-02-14T21:42:16.803Z,26
2024-02-14T21:47:16.761Z,26
2024-02-14T21:52:16.778Z,25
2024-02-14T21:57:16.283Z,24
2024-02-14T22:02:16.952Z,23
2024-02-14T22:07:16.829Z,25
2024-02-14T22:12:16.345Z,24
2024-02-14T22:17:16.931Z,24
2024-02-14T22:22:16.977Z,24
2024-02-14T22:27:16.976Z,25
2024-02-14T22:32:16.568Z,24
2024-02-14T22:37:16.371Z,24
2024-02-14T22:42:16.811Z,26
2024-02-14T23:02:17.772Z,26
2024-02-14T23:07:16.541Z,25
2024-02-14T23:12:17.133Z,28
2024-02-14T23:22:17.084Z,28
2024-02-14T23:27:16.480Z,26
2024-02-14T23:32:17.266Z,26
2024-02-14T23:37:16.985Z,26
2024-02-14T23:42:16.537Z,25
2024-02-14T23:47:17.432Z,25
2024-02-14T23:52:17.000Z,26
2024-02-14T23:57:16.549Z,26
